createdAt,value
2023-02-01T00:00:13.278Z,100491.56
2023-02-01T00:02:41.895Z,100493.28
2023-02-01T00:05:10.814Z,100491.56
2023-02-01T00:07:39.142Z,100503.59
2023-02-01T00:10:08.814Z,100493.28
2023-02-01T00:12:36.642Z,100502.72
2023-02-01T00:15:04.889Z,100488.16
2023-02-01T00:17:34.075Z,100492.44
2023-02-01T00:20:02.017Z,100487.31
2023-02-01T00:22:29.887Z,100477.03
2023-02-01T00:24:57.783Z,100495.03
2023-02-01T00:27:25.705Z,100500.19
2023-02-01T00:29:53.618Z,100484.75
2023-02-01T00:32:21.718Z,100492.47
2023-02-01T00:34:50.899Z,100507.00
2023-02-01T00:37:20.254Z,100510.44
2023-02-01T00:39:50.706Z,100485.53
2023-02-01T00:42:18.623Z,100482.13
2023-02-01T00:44:47.925Z,100484.72
2023-02-01T00:47:15.787Z,100463.28
2023-02-01T00:49:43.676Z,100475.22
2023-02-01T00:52:12.838Z,100475.19
2023-02-01T00:54:40.877Z,100464.06
2023-02-01T00:57:09.907Z,100463.22
2023-02-01T00:59:37.751Z,100462.38
2023-02-01T01:02:05.670Z,100466.72
2023-02-01T01:04:33.718Z,100471.91
2023-02-01T01:07:01.694Z,100482.25
2023-02-01T01:09:30.936Z,100479.66
2023-02-01T01:12:03.425Z,100486.56
2023-02-01T01:14:32.948Z,100467.69
2023-02-01T01:17:00.931Z,100483.13
2023-02-01T01:19:28.888Z,100458.25
2023-02-01T01:21:56.783Z,100459.94
2023-02-01T01:24:24.636Z,100480.53
2023-02-01T01:26:54.244Z,100467.63
2023-02-01T01:29:22.106Z,100476.22
2023-02-01T01:31:50.048Z,100490.78
2023-02-01T01:34:18.067Z,100465.88
2023-02-01T01:36:46.040Z,100465.81
2023-02-01T01:39:13.977Z,100467.47
2023-02-01T01:41:42.182Z,100476.91
2023-02-01T01:44:51.266Z,100470.06
2023-02-01T01:47:21.602Z,100470.97
2023-02-01T01:49:49.687Z,100451.28
2023-02-01T01:52:17.810Z,100449.50
2023-02-01T01:54:47.855Z,100439.25
2023-02-01T01:57:17.693Z,100445.25
2023-02-01T01:59:49.370Z,100455.53
2023-02-01T02:02:17.785Z,100453.81
2023-02-01T02:04:48.342Z,100437.47
2023-02-01T02:07:18.745Z,100447.78
2023-02-01T02:09:59.543Z,100453.72
2023-02-01T02:12:28.727Z,100442.56
2023-02-01T02:14:57.392Z,100442.56
2023-02-01T02:17:32.687Z,100438.34
2023-02-01T02:20:35.798Z,100457.22
2023-02-01T02:23:27.840Z,100483.03
2023-02-01T02:26:07.299Z,100465.97
2023-02-01T02:28:58.562Z,100442.06
2023-02-01T02:31:40.332Z,100442.09
2023-02-01T02:34:16.033Z,100436.97
2023-02-01T02:36:50.641Z,100430.13
2023-02-01T02:39:23.818Z,100420.69
2023-02-01T02:42:14.282Z,100406.16
2023-02-01T02:45:06.351Z,100385.63
2023-02-01T02:47:38.833Z,100395.88
2023-02-01T02:50:32.434Z,100385.63
2023-02-01T02:53:24.388Z,100352.25
2023-02-01T02:55:53.427Z,100349.69
2023-02-01T02:58:39.416Z,100354.78
2023-02-01T03:01:24.840Z,100361.59
2023-02-01T03:04:09.867Z,100359.88
2023-02-01T03:06:41.807Z,100360.72
2023-02-01T03:09:14.498Z,100349.59
2023-02-01T03:12:00.059Z,100353.84
2023-02-01T03:14:31.096Z,100371.84
2023-02-01T03:17:03.242Z,100358.09
2023-02-01T03:19:33.963Z,100358.06
2023-02-01T03:22:06.065Z,100357.16
2023-02-01T03:24:36.952Z,100354.56
2023-02-01T03:27:10.498Z,100363.06
2023-02-01T03:29:41.228Z,100357.03
2023-02-01T03:32:10.428Z,100349.28
2023-02-01T03:34:38.999Z,100342.41
2023-02-01T03:37:12.047Z,100338.97
2023-02-01T03:39:43.857Z,100330.44
2023-02-01T03:42:15.775Z,100323.59
2023-02-01T03:44:49.320Z,100333.88
2023-02-01T03:47:21.196Z,100317.56
2023-02-01T03:49:56.422Z,100324.41
2023-02-01T03:52:27.784Z,100327.00
2023-02-01T03:54:56.166Z,100330.38
2023-02-01T03:57:27.595Z,100314.03
2023-02-01T03:59:55.569Z,100323.41
2023-02-01T04:02:23.520Z,100319.09
2023-02-01T04:04:51.466Z,100312.19
2023-02-01T04:07:20.983Z,100310.38
2023-02-01T04:09:50.308Z,100315.53
2023-02-01T04:12:18.262Z,100312.16
2023-02-01T04:14:46.160Z,100308.72
2023-02-01T04:17:14.218Z,100300.13
2023-02-01T04:19:42.419Z,100301.00
2023-02-01T04:22:10.358Z,100297.63
2023-02-01T04:24:38.578Z,100310.44
2023-02-01T04:27:07.895Z,100298.41
2023-02-01T04:29:35.846Z,100305.38
2023-02-01T04:32:03.843Z,100287.38
2023-02-01T04:34:31.749Z,100299.34
2023-02-01T04:37:00.887Z,100287.31
2023-02-01T04:39:28.772Z,100284.78
2023-02-01T04:41:56.647Z,100281.31
2023-02-01T04:44:26.042Z,100270.19
2023-02-01T04:46:54.027Z,100262.44
2023-02-01T04:49:22.336Z,100254.75
2023-02-01T04:51:50.405Z,100259.00
2023-02-01T04:54:18.378Z,100260.75
2023-02-01T04:56:46.262Z,100263.28
2023-02-01T04:59:14.239Z,100252.88
2023-02-01T05:01:43.536Z,100267.44
2023-02-01T05:04:11.538Z,100247.69
2023-02-01T05:06:39.403Z,100259.66
2023-02-01T05:09:07.477Z,100251.97
2023-02-01T05:11:52.815Z,100251.88
2023-02-01T05:14:20.834Z,100250.16
2023-02-01T05:16:50.328Z,100245.81
2023-02-01T05:19:18.884Z,100240.66
2023-02-01T05:21:47.318Z,100234.66
2023-02-01T05:24:20.563Z,100239.69
2023-02-01T05:26:48.436Z,100237.09
2023-02-01T05:29:17.486Z,100238.78
2023-02-01T05:31:47.060Z,100247.38
2023-02-01T05:34:16.867Z,100243.88
2023-02-01T05:36:44.817Z,100242.16
2023-02-01T05:39:12.892Z,100235.28
2023-02-01T05:41:40.816Z,100239.63
2023-02-01T05:44:08.918Z,100234.44
2023-02-01T05:46:38.584Z,100240.50
2023-02-01T05:49:06.817Z,100246.47
2023-02-01T05:51:36.163Z,100229.28
2023-02-01T05:54:04.210Z,100225.09
2023-02-01T05:56:32.093Z,100242.31
2023-02-01T05:59:00.014Z,100229.44
2023-02-01T06:01:27.926Z,100229.44
2023-02-01T06:03:55.890Z,100227.91
2023-02-01T06:06:23.820Z,100240.88
2023-02-01T06:08:53.107Z,100224.53
2023-02-01T06:11:31.832Z,100215.19
2023-02-01T06:14:00.424Z,100226.34
2023-02-01T06:16:28.605Z,100203.19
2023-02-01T06:18:56.538Z,100204.09
2023-02-01T06:21:25.465Z,100205.00
2023-02-01T06:23:55.814Z,100208.47
2023-02-01T06:26:23.866Z,100191.31
2023-02-01T06:28:51.733Z,100199.97
2023-02-01T06:31:19.755Z,100194.84
2023-02-01T06:33:48.223Z,100198.28
2023-02-01T06:36:18.317Z,100190.59
2023-02-01T06:38:46.514Z,100194.00
2023-02-01T06:41:15.914Z,100193.13
2023-02-01T06:43:44.593Z,100196.66
2023-02-01T06:46:14.367Z,100194.13
2023-02-01T06:48:42.874Z,100200.22
2023-02-01T06:51:21.360Z,100204.47
2023-02-01T06:53:49.473Z,100210.50
2023-02-01T06:56:18.760Z,100201.13
2023-02-01T06:58:47.030Z,100201.13
2023-02-01T07:01:15.347Z,100210.56
2023-02-01T07:03:43.507Z,100202.00
2023-02-01T07:06:11.837Z,100207.16
2023-02-01T07:08:40.038Z,100215.72
2023-02-01T07:11:09.520Z,100208.91
2023-02-01T07:13:39.242Z,100215.75
2023-02-01T07:16:09.104Z,100213.22
2023-02-01T07:18:37.061Z,100219.19
2023-02-01T07:21:05.288Z,100219.19
2023-02-01T07:23:33.220Z,100209.72
2023-02-01T07:26:02.540Z,100216.56
2023-02-01T07:28:31.924Z,100221.75
2023-02-01T07:31:05.985Z,100225.19
2023-02-01T07:33:34.114Z,100222.56
2023-02-01T07:36:03.779Z,100220.88
2023-02-01T07:38:31.861Z,100222.56
2023-02-01T07:41:00.544Z,100218.31
2023-02-01T07:43:28.642Z,100219.16
2023-02-01T07:45:56.877Z,100214.81
2023-02-01T07:48:27.581Z,100220.00
2023-02-01T07:51:02.139Z,100213.16
2023-02-01T07:53:31.562Z,100221.72
2023-02-01T07:55:59.843Z,100206.25
2023-02-01T07:58:28.308Z,100207.91
2023-02-01T08:01:14.281Z,100221.69
2023-02-01T08:03:43.625Z,100205.31
2023-02-01T08:06:11.523Z,100221.53
2023-02-01T08:08:39.925Z,100236.97
2023-02-01T08:11:08.766Z,100230.91
2023-02-01T08:13:37.111Z,100226.53
2023-02-01T08:16:07.669Z,100238.53
2023-02-01T08:18:36.160Z,100236.88
2023-02-01T08:21:10.486Z,100246.97
2023-02-01T08:23:39.514Z,100212.75
2023-02-01T08:26:12.010Z,100212.75
2023-02-01T08:28:40.879Z,100215.28
2023-02-01T08:31:10.037Z,100217.88
2023-02-01T08:33:38.897Z,100219.53
2023-02-01T08:36:09.618Z,100223.78
2023-02-01T08:38:37.996Z,100241.75
2023-02-01T08:41:07.929Z,100235.81
2023-02-01T08:43:36.070Z,100235.72
2023-02-01T08:46:04.070Z,100256.22
2023-02-01T08:48:32.229Z,100240.03
2023-02-01T08:51:03.438Z,100245.06
2023-02-01T08:53:32.758Z,100260.53
2023-02-01T08:56:01.563Z,100250.22
2023-02-01T08:58:29.500Z,100239.94
2023-02-01T09:00:57.529Z,100258.78
2023-02-01T09:03:25.409Z,100247.59
2023-02-01T09:05:54.469Z,100232.09
2023-02-01T09:08:22.582Z,100237.22
2023-02-01T09:10:51.821Z,100244.00
2023-02-01T09:13:19.682Z,100235.41
2023-02-01T09:15:47.932Z,100234.66
2023-02-01T09:18:15.857Z,100225.22
2023-02-01T09:20:43.754Z,100229.56
2023-02-01T09:23:11.638Z,100218.41
2023-02-01T09:25:40.175Z,100224.25
2023-02-01T09:28:10.111Z,100222.59
2023-02-01T09:30:38.793Z,100217.44
2023-02-01T09:33:06.894Z,100237.84
2023-02-01T09:35:34.856Z,100231.91
2023-02-01T09:38:04.344Z,100235.38
2023-02-01T09:40:32.529Z,100237.22
2023-02-01T09:43:22.084Z,100211.53
2023-02-01T09:45:55.942Z,100247.69
2023-02-01T09:48:27.081Z,100253.38
2023-02-01T09:50:58.047Z,100290.59
2023-02-01T09:53:30.430Z,100285.53
2023-02-01T09:56:02.653Z,100290.63
2023-02-01T09:58:36.028Z,100292.25
2023-02-01T10:01:05.592Z,100255.53
2023-02-01T10:03:35.795Z,100236.75
2023-02-01T10:06:22.104Z,100217.97
2023-02-01T10:09:35.830Z,100229.09
2023-02-01T10:12:23.900Z,100223.13
2023-02-01T10:15:01.319Z,100217.97
2023-02-01T10:17:41.151Z,100212.84
2023-02-01T10:20:13.857Z,100211.97
2023-02-01T10:23:16.270Z,100208.53
2023-02-01T10:25:35.898Z,100206.69
2023-02-01T10:28:05.179Z,100206.69
2023-02-01T10:30:40.792Z,100204.03
2023-02-01T10:33:17.533Z,100209.00
2023-02-01T10:35:46.788Z,100201.97
2023-02-01T10:38:29.382Z,100196.47
2023-02-01T10:40:59.340Z,100191.91
2023-02-01T10:43:27.302Z,100182.25
2023-02-01T10:45:56.594Z,100177.53
2023-02-01T10:48:24.700Z,100207.06
2023-02-01T10:50:56.916Z,100209.06
2023-02-01T10:53:28.469Z,100224.81
2023-02-01T10:55:57.190Z,100207.88
2023-02-01T10:58:30.355Z,100201.06
2023-02-01T11:01:03.925Z,100201.00
2023-02-01T11:03:54.093Z,100207.84
2023-02-01T11:06:28.122Z,100200.09
2023-02-01T11:08:57.149Z,100189.66
2023-02-01T11:11:25.416Z,100185.03
2023-02-01T11:13:55.973Z,100181.38
2023-02-01T11:16:32.646Z,100168.72
2023-02-01T11:19:00.863Z,100166.03
2023-02-01T11:21:29.300Z,100155.47
2023-02-01T11:23:58.002Z,100164.53
2023-02-01T11:26:27.420Z,100158.06
2023-02-01T11:29:00.630Z,100172.78
2023-02-01T11:31:30.499Z,100175.34
2023-02-01T11:34:01.583Z,100173.44
2023-02-01T11:36:31.987Z,100185.00
2023-02-01T11:39:12.282Z,100177.16
2023-02-01T11:41:44.589Z,100188.88
2023-02-01T11:44:24.430Z,100199.25
2023-02-01T11:46:53.720Z,100213.16
2023-02-01T11:49:24.283Z,100194.09
2023-02-01T11:52:01.443Z,100199.91
2023-02-01T11:54:44.727Z,100193.31
2023-02-01T11:57:16.744Z,100196.97
2023-02-01T12:00:01.171Z,100200.56
2023-02-01T12:02:46.727Z,100192.03
2023-02-01T12:05:24.355Z,100200.03
2023-02-01T12:08:10.819Z,100206.53
2023-02-01T12:10:50.492Z,100206.91
2023-02-01T12:13:27.891Z,100213.97
2023-02-01T12:16:03.990Z,100212.31
2023-02-01T12:18:51.520Z,100213.09
2023-02-01T12:21:28.792Z,100208.88
2023-02-01T12:24:09.622Z,100196.13
2023-02-01T12:26:55.558Z,100206.13
2023-02-01T12:29:41.797Z,100197.28
2023-02-01T12:32:15.502Z,100185.50
2023-02-01T12:35:11.200Z,100183.59
2023-02-01T12:37:56.677Z,100169.56
2023-02-01T12:40:34.186Z,100166.44
2023-02-01T12:43:05.068Z,100163.94
2023-02-01T12:45:35.660Z,100173.31
2023-02-01T12:48:10.907Z,100165.81
2023-02-01T12:50:44.151Z,100169.88
2023-02-01T12:53:21.541Z,100173.75
2023-02-01T12:55:52.033Z,100175.97
2023-02-01T12:58:22.675Z,100169.22
2023-02-01T13:00:53.510Z,100166.31
2023-02-01T13:03:31.445Z,100153.03
2023-02-01T13:06:06.113Z,100141.91
2023-02-01T13:08:40.897Z,100131.28
2023-02-01T13:11:14.823Z,100145.41
2023-02-01T13:13:50.646Z,100135.50
2023-02-01T13:16:23.316Z,100136.31
2023-02-01T13:18:53.098Z,100133.44
2023-02-01T13:21:24.998Z,100128.31
2023-02-01T13:23:54.441Z,100124.13
2023-02-01T13:26:22.407Z,100129.59
2023-02-01T13:28:52.431Z,100225.41
2023-02-01T13:31:40.481Z,100255.03
2023-02-01T13:34:31.080Z,100230.78
2023-02-01T13:37:11.895Z,100222.25
2023-02-01T13:39:51.456Z,100211.09
2023-02-01T13:42:22.124Z,100182.88
2023-02-01T13:44:52.508Z,100179.34
2023-02-01T13:47:27.216Z,100169.13
2023-02-01T13:49:56.650Z,100164.91
2023-02-01T13:52:39.767Z,100163.19
2023-02-01T13:55:29.344Z,100158.06
2023-02-01T13:58:20.550Z,100143.56
2023-02-01T14:00:49.395Z,100135.06
2023-02-01T14:03:20.139Z,100123.97
2023-02-01T14:06:20.081Z,100115.44
2023-02-01T14:09:17.741Z,100112.03
2023-02-01T14:11:51.346Z,100105.22
2023-02-01T14:14:50.755Z,100086.44
2023-02-01T14:17:40.011Z,100098.34
2023-02-01T14:20:46.710Z,100092.38
2023-02-01T14:23:24.372Z,100081.22
2023-02-01T14:26:09.619Z,100081.19
2023-02-01T14:28:40.875Z,100076.88
2023-02-01T14:31:25.308Z,100070.00
2023-02-01T14:33:58.144Z,100061.41
2023-02-01T14:36:26.418Z,100056.22
2023-02-01T14:38:54.855Z,100051.97
2023-02-01T14:41:34.945Z,100055.31
2023-02-01T14:44:25.096Z,100068.94
2023-02-01T14:47:33.994Z,100065.50
2023-02-01T14:50:18.467Z,100069.78
2023-02-01T14:52:49.071Z,100069.78
2023-02-01T14:55:19.950Z,100068.91
2023-02-01T14:57:52.636Z,100089.44
2023-02-01T15:00:24.127Z,100073.19
2023-02-01T15:02:53.685Z,100058.75
2023-02-01T15:05:27.487Z,100069.88
2023-02-01T15:07:55.668Z,100065.63
2023-02-01T15:10:24.532Z,100066.44
2023-02-01T15:12:53.739Z,100062.97
2023-02-01T15:15:25.037Z,100068.91
2023-02-01T15:17:55.193Z,100063.75
2023-02-01T15:20:25.225Z,100069.72
2023-02-01T15:22:57.191Z,100057.69
2023-02-01T15:25:27.699Z,100067.06
2023-02-01T15:27:57.453Z,100067.84
2023-02-01T15:30:27.242Z,100071.19
2023-02-01T15:33:07.940Z,100065.94
2023-02-01T15:35:47.820Z,100078.72
2023-02-01T15:38:45.931Z,100073.59
2023-02-01T15:41:16.597Z,100083.06
2023-02-01T15:43:50.157Z,100094.28
2023-02-01T15:46:23.430Z,100096.84
2023-02-01T15:48:53.313Z,100097.75
2023-02-01T15:51:23.330Z,100110.63
2023-02-01T15:53:53.812Z,100096.06
2023-02-01T15:56:28.169Z,100090.22
2023-02-01T15:58:59.894Z,100100.47
2023-02-01T16:01:27.896Z,100095.38
2023-02-01T16:04:12.597Z,100108.16
2023-02-01T16:06:47.980Z,100106.44
2023-02-01T16:09:17.318Z,100111.50
2023-02-01T16:11:51.350Z,100115.78
2023-02-01T16:14:20.855Z,100113.25
2023-02-01T16:16:48.752Z,100103.78
2023-02-01T16:19:16.776Z,100118.38
2023-02-01T16:21:44.863Z,100107.25
2023-02-01T16:24:12.880Z,100123.44
2023-02-01T16:26:40.831Z,100123.44
2023-02-01T16:29:09.517Z,100118.28
2023-02-01T16:31:40.610Z,100126.78
2023-02-01T16:34:08.589Z,100130.19
2023-02-01T16:36:36.385Z,100132.72
2023-02-01T16:39:05.015Z,100131.78
2023-02-01T16:41:32.956Z,100129.97
2023-02-01T16:44:01.269Z,100123.94
2023-02-01T16:46:31.514Z,100134.16
2023-02-01T16:49:02.888Z,100144.34
2023-02-01T16:51:33.512Z,100147.78
2023-02-01T16:54:01.699Z,100136.53
2023-02-01T16:56:33.632Z,100144.25
2023-02-01T16:59:01.991Z,100145.91
2023-02-01T17:01:30.633Z,100148.44
2023-02-01T17:03:59.062Z,100147.50
2023-02-01T17:06:30.208Z,100137.16
2023-02-01T17:08:59.699Z,100148.25
2023-02-01T17:11:30.866Z,100156.78
2023-02-01T17:13:59.188Z,100150.78
2023-02-01T17:16:30.193Z,100148.94
2023-02-01T17:18:59.872Z,100157.53
2023-02-01T17:21:31.250Z,100145.50
2023-02-01T17:24:01.242Z,100155.75
2023-02-01T17:26:29.252Z,100158.31
2023-02-01T17:28:58.165Z,100160.00
2023-02-01T17:31:26.106Z,100160.91
2023-02-01T17:33:54.197Z,100172.84
2023-02-01T17:36:22.497Z,100165.97
2023-02-01T17:39:04.696Z,100155.69
2023-02-01T17:41:33.853Z,100147.03
2023-02-01T17:44:02.229Z,100156.50
2023-02-01T17:46:32.295Z,100159.91
2023-02-01T17:49:01.484Z,100148.78
2023-02-01T17:51:30.214Z,100165.19
2023-02-01T17:53:59.427Z,100158.25
2023-02-01T17:56:27.304Z,100154.94
2023-02-01T17:58:55.838Z,100158.34
2023-02-01T18:01:26.008Z,100160.88
2023-02-01T18:03:53.865Z,100167.69
2023-02-01T18:06:24.611Z,100171.94
2023-02-01T18:08:52.466Z,100178.81
2023-02-01T18:11:23.363Z,100184.75
2023-02-01T18:13:53.034Z,100178.78
2023-02-01T18:16:23.215Z,100170.22
2023-02-01T18:18:51.553Z,100171.13
2023-02-01T18:21:21.376Z,100171.03
2023-02-01T18:23:49.659Z,100165.06
2023-02-01T18:26:19.666Z,100170.09
2023-02-01T18:28:48.958Z,100173.59
2023-02-01T18:31:23.060Z,100176.16
2023-02-01T18:33:51.348Z,100173.53
2023-02-01T18:36:19.488Z,100171.00
2023-02-01T18:38:47.409Z,100169.22
2023-02-01T18:41:16.844Z,100170.94
2023-02-01T18:43:44.843Z,100180.41
2023-02-01T18:46:14.506Z,100191.53
2023-02-01T18:48:42.804Z,100163.09
2023-02-01T18:51:11.719Z,100182.97
2023-02-01T18:53:40.352Z,100168.28
2023-02-01T18:56:08.869Z,100164.75
2023-02-01T18:58:36.751Z,100169.19
2023-02-01T19:01:08.868Z,100169.94
2023-02-01T19:03:40.938Z,100176.81
2023-02-01T19:06:12.800Z,100170.72
2023-02-01T19:08:40.617Z,100157.84
2023-02-01T19:11:10.127Z,100160.28
2023-02-01T19:13:38.040Z,100161.09
2023-02-01T19:16:09.755Z,100163.66
2023-02-01T19:18:39.489Z,100168.63
2023-02-01T19:21:10.001Z,100156.59
2023-02-01T19:23:39.588Z,100156.59
2023-02-01T19:26:12.219Z,100152.28
2023-02-01T19:28:40.192Z,100165.28
2023-02-01T19:31:09.716Z,100167.88
2023-02-01T19:33:39.107Z,100164.50
2023-02-01T19:36:09.936Z,100159.41
2023-02-01T19:38:38.384Z,100154.34
2023-02-01T19:41:06.532Z,100170.66
2023-02-01T19:43:35.388Z,100162.22
2023-02-01T19:46:03.572Z,100163.03
2023-02-01T19:48:31.913Z,100167.31
2023-02-01T19:51:01.310Z,100168.09
2023-02-01T19:53:30.091Z,100172.31
2023-02-01T19:55:59.040Z,100159.41
2023-02-01T19:58:27.276Z,100157.66
2023-02-01T20:00:55.240Z,100164.53
2023-02-01T20:03:23.687Z,100173.09
2023-02-01T20:05:52.341Z,100177.25
2023-02-01T20:08:21.961Z,100172.13
2023-02-01T20:10:49.972Z,100183.25
2023-02-01T20:13:17.922Z,100176.28
2023-02-01T20:15:46.170Z,100171.09
2023-02-01T20:18:14.157Z,100183.22
2023-02-01T20:20:42.700Z,100162.44
2023-02-01T20:23:10.985Z,100156.59
2023-02-01T20:25:41.338Z,100160.81
2023-02-01T20:28:09.291Z,100121.34
2023-02-01T20:30:37.288Z,100173.69
2023-02-01T20:33:05.405Z,100170.25
2023-02-01T20:35:33.343Z,100150.47
2023-02-01T20:38:01.888Z,100151.41
2023-02-01T20:40:31.396Z,100171.97
2023-02-01T20:43:00.700Z,100163.44
2023-02-01T20:45:28.705Z,100133.38
2023-02-01T20:47:56.664Z,100133.44
2023-02-01T20:50:25.232Z,100118.00
2023-02-01T20:52:53.137Z,100117.97
2023-02-01T20:55:21.034Z,100113.69
2023-02-01T20:57:48.992Z,100099.03
2023-02-01T21:00:19.603Z,100113.69
2023-02-01T21:02:47.602Z,100104.25
2023-02-01T21:05:16.053Z,100130.94
2023-02-01T21:07:44.336Z,100092.19
2023-02-01T21:10:12.691Z,100102.53
2023-02-01T21:12:40.687Z,100105.97
2023-02-01T21:15:09.480Z,100110.25
2023-02-01T21:17:39.969Z,100103.47
2023-02-01T21:20:09.698Z,100105.22
2023-02-01T21:22:37.528Z,100095.00
2023-02-01T21:25:05.996Z,100076.03
2023-02-01T21:27:34.008Z,100083.75
2023-02-01T21:30:01.962Z,100090.72
2023-02-01T21:32:29.900Z,100076.13
2023-02-01T21:34:59.208Z,100074.34
2023-02-01T21:37:27.188Z,100071.81
2023-02-01T21:39:56.396Z,100070.03
2023-02-01T21:42:26.533Z,100043.41
2023-02-01T21:44:55.175Z,100050.38
2023-02-01T21:47:26.032Z,100042.63
2023-02-01T21:49:54.549Z,100038.22
2023-02-01T21:52:24.219Z,100057.84
2023-02-01T21:54:59.331Z,100035.75
2023-02-01T21:57:27.838Z,100038.47
2023-02-01T21:59:55.772Z,100087.59
2023-02-01T22:02:23.716Z,100034.50
2023-02-01T22:04:51.591Z,100049.13
2023-02-01T22:07:19.449Z,100017.31
2023-02-01T22:09:49.757Z,100025.84
2023-02-01T22:12:17.956Z,100018.91
2023-02-01T22:14:46.479Z,100031.63
2023-02-01T22:17:14.571Z,100012.78
2023-02-01T22:19:42.676Z,100018.63
2023-02-01T22:22:11.927Z,100028.88
2023-02-01T22:24:39.737Z,100014.22
2023-02-01T22:27:14.424Z,100059.72
2023-02-01T22:29:43.509Z,100039.09
2023-02-01T22:32:13.895Z,100033.78
2023-02-01T22:34:41.873Z,100026.84
2023-02-01T22:37:11.152Z,100038.88
2023-02-01T22:39:40.069Z,100041.53
2023-02-01T22:42:09.363Z,100034.59
2023-02-01T22:44:37.214Z,100063.88
2023-02-01T22:47:05.174Z,100053.41
2023-02-01T22:49:32.982Z,100046.31
2023-02-01T22:52:00.787Z,100062.56
2023-02-01T22:54:28.642Z,100062.53
2023-02-01T22:56:56.529Z,100098.59
2023-02-01T22:59:25.741Z,100063.31
2023-02-01T23:01:53.658Z,100086.56
2023-02-01T23:04:21.513Z,100095.13
2023-02-01T23:06:50.320Z,100083.03
2023-02-01T23:09:19.805Z,100120.94
2023-02-01T23:11:47.776Z,100153.63
2023-02-01T23:14:16.793Z,100111.47
2023-02-01T23:16:46.882Z,100127.81
2023-02-01T23:19:14.945Z,100133.94
2023-02-01T23:21:43.122Z,100134.75
2023-02-01T23:24:11.226Z,100145.09
2023-02-01T23:26:39.291Z,100148.69
2023-02-01T23:29:07.330Z,100179.47
2023-02-01T23:31:36.383Z,100206.09
2023-02-01T23:34:05.737Z,100184.72
2023-02-01T23:36:34.221Z,100186.50
2023-02-01T23:39:02.270Z,100227.72
2023-02-01T23:41:31.798Z,100213.22
2023-02-01T23:43:58.865Z,100206.28
2023-02-01T23:46:28.240Z,100211.50
2023-02-01T23:48:56.414Z,100220.09
2023-02-01T23:51:26.146Z,100236.56
2023-02-01T23:53:54.428Z,100233.13
2023-02-01T23:56:25.841Z,100246.81
2023-02-01T23:58:54.360Z,100244.34
